WetterOnline ( http://www.wetteronline.de )

Wetter aktuell Bamberg

Aktuelles Wetter: Bamberg (243m)

6-stündlich | Neueste Meldungen
Ortszeit Temperatur Wetter
Di, 19.06. 20:00 23.3° C bedeckt
Di, 19.06. 14:00 23.3° C bewölkt
Di, 19.06. 8:00 17.9° C wolkenlos
Di, 19.06. 2:00 11.5° C wolkenlos
Mo, 18.06. 20:00 21.4° C bewölkt
Mo, 18.06. 14:00 20.8° C leicht bewölkt
Sa, 16.06. 8:00 15.3° C wolkenlos
Sa, 16.06. 2:00 11.0° C wolkenlos
Ortszeit Temperatur Wetter
Di, 19.06. 20:00 23.3° C bedeckt
Di, 19.06. 19:50 23.3° C bedeckt
Di, 19.06. 19:40 23.4° C bedeckt
Di, 19.06. 19:30 23.6° C bedeckt
Di, 19.06. 19:20 23.6° C bedeckt
Di, 19.06. 19:10 23.8° C bedeckt
Di, 19.06. 19:00 23.6° C bedeckt
Di, 19.06. 18:30 23.7° C bedeckt
Di, 19.06. 18:00 24.0° C bedeckt
Di, 19.06. 17:30 24.3° C bewölkt
Di, 19.06. 17:00 25.0° C wolkig
Ortszeit Relative Feuchte Sichtweite
Di, 19.06. 20:00 56% 70 km
Di, 19.06. 14:00 57% 55 km
Di, 19.06. 8:00 74% 30 km
Di, 19.06. 2:00 94% 13 km
Mo, 18.06. 20:00 53% 70 km
Mo, 18.06. 14:00 50% 70 km
Sa, 16.06. 8:00 77% 12 km
Sa, 16.06. 2:00 95% 7 km
Ortszeit Relative Feuchte Sichtweite
Di, 19.06. 20:00 56% 70 km
Di, 19.06. 19:50 56% -
Di, 19.06. 19:40 53% -
Di, 19.06. 19:30 54% 70 km
Di, 19.06. 19:20 54% -
Di, 19.06. 19:10 54% -
Di, 19.06. 19:00 56% 70 km
Di, 19.06. 18:30 54% 70 km
Di, 19.06. 18:00 52% 70 km
Di, 19.06. 17:30 51% 70 km
Di, 19.06. 17:00 51% 45 km
Ortszeit Niederschlagsmenge Niederschlagsart
Di, 19.06. 20:00 0.0 l/m2 in 12 Std. -
Di, 19.06. 14:00 0.0 l/m2 in 6 Std. -
Di, 19.06. 8:00 0.0 l/m2 in 12 Std. -
Di, 19.06. 2:00 0.0 l/m2 in 6 Std. -
Mo, 18.06. 20:00 0.0 l/m2 in 3 Std. -
Mo, 18.06. 14:00 0.0 l/m2 in 3 Std. -
Sa, 16.06. 8:00 0.0 l/m2 in 12 Std. -
Sa, 16.06. 2:00 0.0 l/m2 in 6 Std. -
Ortszeit Niederschlagsmenge Niederschlagsart
Di, 19.06. 20:00 0.0 l/m2 in 1 Std. -
Di, 19.06. 19:50 keine Meldung -
Di, 19.06. 19:40 keine Meldung -
Di, 19.06. 19:30 0.0 l/m2 in 1 Std. -
Di, 19.06. 19:20 keine Meldung -
Di, 19.06. 19:10 keine Meldung -
Di, 19.06. 19:00 0.0 l/m2 in 1 Std. -
Di, 19.06. 18:30 0.0 l/m2 in 1 Std. -
Di, 19.06. 18:00 0.0 l/m2 in 1 Std. -
Di, 19.06. 17:30 0.0 l/m2 in 1 Std. -
Di, 19.06. 17:00 0.0 l/m2 in 1 Std. -
Ortszeit Stärke Spitze Richtung
km/h Bft. km/h Grad Sektor
Di, 19.06. 20:00 9 2 26 310° NW
Di, 19.06. 14:00 9 2 28 280° W
Di, 19.06. 8:00 7 2 11 140° SO
Di, 19.06. 2:00 4 1 22 100° O
Mo, 18.06. 20:00 14 3 29 280° W
Mo, 18.06. 14:00 15 3 28 270° W
Sa, 16.06. 8:00 4 1 4 110° O
Sa, 16.06. 2:00 4 1 22 110° O
Ortszeit Stärke Spitze Richtung
km/h Bft. km/h Grad Sektor
Di, 19.06. 20:00 9 2 20 310° NW
Di, 19.06. 19:50 9 2 - 310° NW
Di, 19.06. 19:40 14 3 - 320° NW
Di, 19.06. 19:30 11 2 18 320° NW
Di, 19.06. 19:20 11 2 - 320° NW
Di, 19.06. 19:10 7 2 - 310° NW
Di, 19.06. 19:00 9 2 19 290° W
Di, 19.06. 18:30 13 3 19 300° NW
Di, 19.06. 18:00 7 2 25 320° NW
Di, 19.06. 17:30 11 2 25 260° W
Di, 19.06. 17:00 14 3 25 270° W
Ortszeit Untergrenze Bedeckung Gattung
total tief tief mittel hoch
Di, 19.06. 20:00 1800 m 8/8 8/8 - - -
Di, 19.06. 14:00 1170 m 7/8 7/8 - - -
Di, 19.06. 8:00 - 0/8 0/8 - - -
Di, 19.06. 2:00 - 0/8 0/8 - - -
Mo, 18.06. 20:00 1800 m 7/8 - - - -
Mo, 18.06. 14:00 1440 m 2/8 2/8 - - -
Sa, 16.06. 8:00 - 0/8 0/8 - - -
Sa, 16.06. 2:00 - 0/8 0/8 - - -
Ortszeit Bedeckungsgrad in Achtel und Wolkenuntergrenze
Di, 19.06. 20:00 8(1800m)
Di, 19.06. 19:50 8(1800m)
Di, 19.06. 19:40 8(1800m)
Di, 19.06. 19:30 8(1800m)
Di, 19.06. 19:20 8(1800m)
Di, 19.06. 19:10 8(1800m)
Di, 19.06. 19:00 8(1800m)
Di, 19.06. 18:30 3(1470m) 8(1500m)
Di, 19.06. 18:00 3(1500m) 8(1500m)
Di, 19.06. 17:30 3(1470m) 7(1500m)
Di, 19.06. 17:00 1(1410m) 6(1800m)
Ortszeit Luftdruck NN (hPa) Tendenz (hPa in 3 Std.)
Di, 19.06. 20:00 1023 - 0,1
Di, 19.06. 14:00 1023 0,0
Di, 19.06. 8:00 1024 + 0,6
Di, 19.06. 2:00 1024 + 0,4
Mo, 18.06. 20:00 1021 - 0,1
Mo, 18.06. 14:00 1022 - 0,4
Sa, 16.06. 8:00 1017 + 0,1
Sa, 16.06. 2:00 1018 + 0,1
Ortszeit Luftdruck NN (hPa) Tendenz (hPa in 3 Std.)
Di, 19.06. 20:00 1023 - 0,1
Di, 19.06. 19:50 1023 keine Meldung
Di, 19.06. 19:40 1023 keine Meldung
Di, 19.06. 19:30 1023 - 0,3
Di, 19.06. 19:20 1023 keine Meldung
Di, 19.06. 19:10 1023 keine Meldung
Di, 19.06. 19:00 1023 - 0,3
Di, 19.06. 18:30 1023 - 0,5
Di, 19.06. 18:00 1023 - 0,7
Di, 19.06. 17:30 1023 - 0,7
Di, 19.06. 17:00 1023 - 0,6
Ortszeit Schneehöhe (cm)
Di, 19.06. 20:00 -
Di, 19.06. 14:00 -
Di, 19.06. 8:00 -
Di, 19.06. 2:00 -
Mo, 18.06. 20:00 -
Mo, 18.06. 14:00 -
Sa, 16.06. 8:00 -
Sa, 16.06. 2:00 -
Ortszeit Schneehöhe (cm)
Di, 19.06. 20:00 -
Di, 19.06. 19:50 -
Di, 19.06. 19:40 -
Di, 19.06. 19:30 -
Di, 19.06. 19:20 -
Di, 19.06. 19:10 -
Di, 19.06. 19:00 -
Di, 19.06. 18:30 -
Di, 19.06. 18:00 -
Di, 19.06. 17:30 -
Di, 19.06. 17:00 -
Link zu dieser Seite / Seite empfehlen

Das Wetter in ...